createdAt,value
2022-08-12T00:00:36.799Z,100775.69
2022-08-12T00:03:25.738Z,100774.84
2022-08-12T00:06:14.805Z,100776.96
2022-08-12T00:09:02.005Z,100774.48
2022-08-12T00:11:49.390Z,100778.61
2022-08-12T00:14:37.185Z,100777.95
2022-08-12T00:17:24.924Z,100781.11
2022-08-12T00:20:12.442Z,100783.27
2022-08-12T00:23:00.310Z,100782.89
2022-08-12T00:26:21.758Z,100787.80
2022-08-12T00:29:07.630Z,100786.42
2022-08-12T00:31:54.964Z,100782.79
2022-08-12T00:34:42.103Z,100783.73
2022-08-12T00:37:29.794Z,100784.64
2022-08-12T00:40:16.943Z,100775.62
2022-08-12T00:42:48.140Z,100779.40
2022-08-12T00:45:18.184Z,100780.66
2022-08-12T00:47:48.803Z,100787.02
2022-08-12T00:50:19.228Z,100786.67
2022-08-12T00:52:50.915Z,100785.55
2022-08-12T00:55:20.841Z,100782.77
2022-08-12T00:57:51.444Z,100788.96
2022-08-12T01:00:23.381Z,100787.67
2022-08-12T01:02:56.809Z,100793.01
2022-08-12T01:05:45.026Z,100791.17
2022-08-12T01:08:43.707Z,100791.77
2022-08-12T01:11:32.072Z,100787.21
2022-08-12T01:14:03.147Z,100787.30
2022-08-12T01:16:32.400Z,100788.65
2022-08-12T01:19:03.152Z,100790.34
2022-08-12T01:22:04.134Z,100786.96
2022-08-12T01:24:54.109Z,100783.88
2022-08-12T01:27:25.220Z,100782.38
2022-08-12T01:29:56.908Z,100781.10
2022-08-12T01:32:28.865Z,100772.48
2022-08-12T01:35:05.281Z,100767.90
2022-08-12T01:37:37.433Z,100763.48
2022-08-12T01:40:34.372Z,100766.95
2022-08-12T01:43:06.097Z,100765.44
2022-08-12T01:45:43.283Z,100762.81
2022-08-12T01:48:25.108Z,100761.38
2022-08-12T01:52:14.831Z,100763.25
2022-08-12T01:54:06.956Z,100766.69
2022-08-12T01:56:45.928Z,100769.77
2022-08-12T01:59:38.429Z,100764.91
2022-08-12T02:02:16.160Z,100764.02
2022-08-12T02:05:19.888Z,100761.95
2022-08-12T02:08:16.447Z,100770.64
2022-08-12T02:11:17.148Z,100768.41
2022-08-12T02:14:10.446Z,100769.14
2022-08-12T02:16:58.631Z,100766.95
2022-08-12T02:19:54.043Z,100767.52
2022-08-12T02:22:29.163Z,100765.33
2022-08-12T02:25:06.691Z,100769.08
2022-08-12T02:27:39.367Z,100765.30
2022-08-12T02:30:12.592Z,100765.39
2022-08-12T02:32:44.800Z,100764.02
2022-08-12T02:35:16.938Z,100763.70
2022-08-12T02:37:47.916Z,100760.37
2022-08-12T02:40:19.078Z,100760.89
2022-08-12T02:42:53.279Z,100759.41
2022-08-12T02:45:27.310Z,100756.37
2022-08-12T02:48:01.561Z,100757.21
2022-08-12T02:50:34.091Z,100757.67
2022-08-12T02:53:04.938Z,100755.84
2022-08-12T02:55:36.018Z,100755.02
2022-08-12T02:58:09.029Z,100750.13
2022-08-12T03:00:42.570Z,100750.73
2022-08-12T03:03:12.960Z,100750.62
2022-08-12T03:05:48.534Z,100751.17
2022-08-12T03:08:32.562Z,100750.27
2022-08-12T03:11:06.259Z,100754.56
2022-08-12T03:13:46.414Z,100760.43
2022-08-12T03:16:15.845Z,100762.17
2022-08-12T03:18:46.155Z,100754.27
2022-08-12T03:21:52.870Z,100761.39
2022-08-12T03:24:08.952Z,100764.80
2022-08-12T03:26:39.270Z,100761.10
2022-08-12T03:29:09.170Z,100763.68
2022-08-12T03:31:38.069Z,100758.58
2022-08-12T03:34:08.404Z,100757.89
2022-08-12T03:36:39.426Z,100758.42
2022-08-12T03:39:35.820Z,100753.69
2022-08-12T03:42:25.625Z,100755.42
2022-08-12T03:45:30.639Z,100757.51
2022-08-12T03:48:21.246Z,100757.18
2022-08-12T03:51:09.619Z,100759.09
2022-08-12T03:53:58.308Z,100757.14
2022-08-12T03:56:45.371Z,100752.77
2022-08-12T03:59:33.131Z,100752.02
2022-08-12T04:02:01.973Z,100747.82
2022-08-12T04:04:33.560Z,100750.02
2022-08-12T04:07:06.032Z,100753.52
2022-08-12T04:09:37.827Z,100754.45
2022-08-12T04:12:32.336Z,100754.30
2022-08-12T04:15:02.603Z,100754.21
2022-08-12T04:17:33.362Z,100753.92
2022-08-12T04:20:02.595Z,100752.64
2022-08-12T04:22:32.035Z,100756.08
2022-08-12T04:25:01.632Z,100758.02
2022-08-12T04:27:31.668Z,100756.66
2022-08-12T04:30:31.590Z,100758.27
2022-08-12T04:32:51.572Z,100755.04
2022-08-12T04:35:22.118Z,100759.44
2022-08-12T04:37:59.909Z,100758.16
2022-08-12T04:40:31.874Z,100764.56
2022-08-12T04:43:01.796Z,100763.94
2022-08-12T04:45:31.997Z,100762.66
2022-08-12T04:48:01.994Z,100762.45
2022-08-12T04:50:36.034Z,100765.00
2022-08-12T04:53:08.222Z,100764.66
2022-08-12T04:55:38.494Z,100770.84
2022-08-12T04:58:08.275Z,100774.42
2022-08-12T05:00:37.867Z,100770.68
2022-08-12T05:03:07.338Z,100778.60
2022-08-12T05:05:37.776Z,100778.42
2022-08-12T05:08:11.909Z,100775.45
2022-08-12T05:10:40.918Z,100783.21
2022-08-12T05:13:12.240Z,100780.90
2022-08-12T05:16:05.219Z,100777.09
2022-08-12T05:18:31.268Z,100782.42
2022-08-12T05:21:00.130Z,100775.83
2022-08-12T05:23:31.457Z,100777.77
2022-08-12T05:26:00.563Z,100772.73
2022-08-12T05:28:30.614Z,100775.97
2022-08-12T05:31:01.631Z,100776.86
2022-08-12T05:33:36.938Z,100771.05
2022-08-12T05:36:07.744Z,100772.45
2022-08-12T05:38:55.595Z,100766.38
2022-08-12T05:41:26.609Z,100763.79
2022-08-12T05:43:57.101Z,100767.04
2022-08-12T05:46:27.663Z,100767.92
2022-08-12T05:48:58.456Z,100768.86
2022-08-12T05:51:39.788Z,100768.90
2022-08-12T05:54:15.797Z,100765.42
2022-08-12T05:56:45.114Z,100766.50
2022-08-12T05:59:14.131Z,100766.20
2022-08-12T06:02:10.462Z,100765.30
2022-08-12T06:04:32.948Z,100766.42
2022-08-12T06:07:02.087Z,100770.64
2022-08-12T06:09:51.158Z,100764.72
2022-08-12T06:12:20.921Z,100765.90
2022-08-12T06:14:49.749Z,100762.55
2022-08-12T06:17:18.845Z,100762.83
2022-08-12T06:20:26.055Z,100766.37
2022-08-12T06:22:39.068Z,100770.63
2022-08-12T06:25:09.359Z,100763.89
2022-08-12T06:28:06.496Z,100763.84
2022-08-12T06:30:39.050Z,100772.48
2022-08-12T06:33:22.088Z,100770.79
2022-08-12T06:35:53.171Z,100770.28
2022-08-12T06:38:28.732Z,100767.39
2022-08-12T06:41:17.809Z,100770.89
2022-08-12T06:44:04.728Z,100766.83
2022-08-12T06:46:38.201Z,100770.27
2022-08-12T06:49:11.853Z,100770.48
2022-08-12T06:51:40.780Z,100771.25
2022-08-12T06:54:10.898Z,100769.66
2022-08-12T06:57:03.040Z,100769.00
2022-08-12T06:59:28.546Z,100772.70
2022-08-12T07:01:57.422Z,100767.78
2022-08-12T07:04:36.251Z,100771.98
2022-08-12T07:07:07.491Z,100767.61
2022-08-12T07:10:04.158Z,100762.34
2022-08-12T07:12:27.798Z,100757.36
2022-08-12T07:14:58.337Z,100752.99
2022-08-12T07:17:36.983Z,100746.64
2022-08-12T07:20:29.817Z,100742.23
2022-08-12T07:23:03.127Z,100746.02
2022-08-12T07:25:41.127Z,100750.08
2022-08-12T07:28:16.078Z,100750.05
2022-08-12T07:30:48.638Z,100747.79
2022-08-12T07:33:19.262Z,100743.60
2022-08-12T07:35:49.133Z,100741.45
2022-08-12T07:38:29.233Z,100737.34
2022-08-12T07:41:05.056Z,100733.00
2022-08-12T07:43:36.533Z,100733.26
2022-08-12T07:46:12.446Z,100733.45
2022-08-12T07:48:43.746Z,100733.13
2022-08-12T07:51:25.256Z,100733.98
2022-08-12T07:54:00.509Z,100731.52
2022-08-12T07:56:32.171Z,100738.84
2022-08-12T07:59:02.393Z,100741.05
2022-08-12T08:01:32.779Z,100738.00
2022-08-12T08:04:20.487Z,100735.25
2022-08-12T08:06:50.561Z,100743.61
2022-08-12T08:09:21.747Z,100741.69
2022-08-12T08:12:09.145Z,100742.52
2022-08-12T08:14:38.990Z,100747.11
2022-08-12T08:17:10.945Z,100748.11
2022-08-12T08:20:01.906Z,100748.94
2022-08-12T08:22:41.455Z,100749.80
2022-08-12T08:25:35.013Z,100746.70
2022-08-12T08:28:04.192Z,100746.23
2022-08-12T08:30:34.732Z,100742.69
2022-08-12T08:33:17.274Z,100738.00
2022-08-12T08:35:54.699Z,100734.94
2022-08-12T08:38:33.085Z,100731.08
2022-08-12T08:42:16.661Z,100729.30
2022-08-12T08:44:12.096Z,100733.38
2022-08-12T08:46:43.904Z,100730.56
2022-08-12T08:49:15.237Z,100730.94
2022-08-12T08:51:45.574Z,100725.73
2022-08-12T08:54:14.445Z,100721.32
2022-08-12T08:56:45.717Z,100720.17
2022-08-12T08:59:16.159Z,100711.95
2022-08-12T09:01:45.883Z,100710.44
2022-08-12T09:05:09.046Z,100707.07
2022-08-12T09:07:16.556Z,100698.46
2022-08-12T09:10:02.741Z,100698.23
2022-08-12T09:12:55.121Z,100693.27
2022-08-12T09:18:15.204Z,100690.76
2022-08-12T09:20:44.657Z,100685.90
2022-08-12T09:26:09.763Z,100689.11
2022-08-12T09:28:40.512Z,100685.16
2022-08-12T09:32:03.760Z,100685.58
2022-08-12T09:34:27.994Z,100679.02
2022-08-12T09:36:58.041Z,100678.92
2022-08-12T09:40:06.285Z,100679.45
2022-08-12T09:42:43.318Z,100677.25
2022-08-12T09:45:24.714Z,100672.27
2022-08-12T09:48:20.306Z,100670.55
2022-08-12T09:50:55.314Z,100665.97
2022-08-12T09:53:29.426Z,100663.00
2022-08-12T09:56:59.580Z,100653.27
2022-08-12T09:59:09.664Z,100657.09
2022-08-12T10:02:45.636Z,100655.29
2022-08-12T10:04:30.373Z,100649.99
2022-08-12T10:06:59.320Z,100639.05
2022-08-12T10:09:58.395Z,100636.86
2022-08-12T10:12:36.806Z,100632.11
2022-08-12T10:15:07.334Z,100630.20
2022-08-12T10:17:36.353Z,100625.92
2022-08-12T10:20:25.054Z,100624.85
2022-08-12T10:22:59.568Z,100620.82
2022-08-12T10:26:18.587Z,100612.96
2022-08-12T10:29:02.761Z,100615.19
2022-08-12T10:32:01.634Z,100616.70
2022-08-12T10:34:26.443Z,100618.95
2022-08-12T10:36:58.512Z,100615.73
2022-08-12T10:40:02.150Z,100607.23
2022-08-12T10:42:51.240Z,100606.23
2022-08-12T10:45:20.270Z,100603.58
2022-08-12T10:48:07.640Z,100605.59
2022-08-12T10:50:56.674Z,100605.08
2022-08-12T10:53:45.742Z,100600.95
2022-08-12T10:56:15.524Z,100601.07
2022-08-12T10:58:47.087Z,100596.79
2022-08-12T11:01:48.856Z,100591.17
2022-08-12T11:04:35.794Z,100588.97
2022-08-12T11:07:08.564Z,100584.53
2022-08-12T11:09:59.602Z,100582.77
2022-08-12T11:12:55.745Z,100584.58
2022-08-12T11:15:33.314Z,100581.73
2022-08-12T11:18:18.009Z,100578.66
2022-08-12T11:20:49.200Z,100580.67
2022-08-12T11:23:24.671Z,100575.10
2022-08-12T11:26:06.925Z,100574.32
2022-08-12T11:28:38.230Z,100571.14
2022-08-12T11:31:12.272Z,100573.95
2022-08-12T11:34:06.465Z,100571.22
2022-08-12T11:36:32.973Z,100573.80
2022-08-12T11:39:08.203Z,100576.06
2022-08-12T11:41:43.101Z,100575.80
2022-08-12T11:44:36.723Z,100572.15
2022-08-12T11:47:01.360Z,100569.81
2022-08-12T11:49:32.852Z,100569.05
2022-08-12T11:52:03.599Z,100565.74
2022-08-12T11:54:33.432Z,100558.01
2022-08-12T11:58:03.881Z,100554.81
2022-08-12T12:02:41.181Z,100545.18
2022-08-12T12:05:10.504Z,100542.94
2022-08-12T12:08:38.333Z,100540.60
2022-08-12T12:10:32.407Z,100536.86
2022-08-12T12:13:04.128Z,100530.95
2022-08-12T12:15:41.410Z,100530.83
2022-08-12T12:18:22.446Z,100529.61
2022-08-12T12:21:01.678Z,100526.77
2022-08-12T12:23:36.113Z,100526.75
2022-08-12T12:26:08.570Z,100524.98
2022-08-12T12:28:54.352Z,100525.76
2022-08-12T12:32:09.257Z,100524.05
2022-08-12T12:34:30.699Z,100526.85
2022-08-12T12:37:00.882Z,100519.63
2022-08-12T12:39:55.166Z,100523.42
2022-08-12T12:42:52.105Z,100520.58
2022-08-12T12:45:19.131Z,100519.55
2022-08-12T12:48:00.001Z,100515.48
2022-08-12T12:50:35.946Z,100513.48
2022-08-12T12:54:05.758Z,100507.34
2022-08-12T12:56:12.631Z,100506.42
2022-08-12T12:58:43.609Z,100504.73
2022-08-12T13:01:25.597Z,100506.80
2022-08-12T13:04:02.167Z,100501.95
2022-08-12T13:06:32.079Z,100501.11
2022-08-12T13:09:03.622Z,100499.90
2022-08-12T13:11:41.535Z,100500.63
2022-08-12T13:14:29.571Z,100492.79
2022-08-12T13:17:00.880Z,100486.23
2022-08-12T13:19:38.704Z,100482.71
2022-08-12T13:22:18.180Z,100480.52
2022-08-12T13:24:54.954Z,100481.29
2022-08-12T13:27:34.479Z,100476.08
2022-08-12T13:30:11.092Z,100467.66
2022-08-12T13:32:56.804Z,100463.59
2022-08-12T13:36:02.934Z,100462.83
2022-08-12T13:38:16.030Z,100456.41
2022-08-12T13:40:57.892Z,100452.52
2022-08-12T13:43:40.865Z,100454.02
2022-08-12T13:46:13.415Z,100456.92
2022-08-12T13:48:44.689Z,100458.04
2022-08-12T13:51:14.431Z,100452.38
2022-08-12T13:53:57.605Z,100454.69
2022-08-12T13:56:35.115Z,100450.60
2022-08-12T13:59:07.956Z,100450.32
2022-08-12T14:01:40.087Z,100443.58
2022-08-12T14:04:11.719Z,100445.77
2022-08-12T14:06:41.238Z,100444.79
2022-08-12T14:09:15.660Z,100449.33
2022-08-12T14:11:58.687Z,100449.66
2022-08-12T14:14:31.417Z,100446.89
2022-08-12T14:17:09.834Z,100449.27
2022-08-12T14:20:01.027Z,100450.80
2022-08-12T14:22:31.671Z,100441.02
2022-08-12T14:25:01.286Z,100442.59
2022-08-12T14:28:04.376Z,100441.18
2022-08-12T14:30:28.787Z,100441.78
2022-08-12T14:33:03.046Z,100441.23
2022-08-12T14:35:34.048Z,100437.73
2022-08-12T14:38:15.732Z,100433.30
2022-08-12T14:40:45.099Z,100440.54
2022-08-12T14:43:14.064Z,100431.89
2022-08-12T14:45:49.285Z,100434.29
2022-08-12T14:48:24.520Z,100435.52
2022-08-12T14:52:10.527Z,100428.52
2022-08-12T14:59:58.399Z,100437.27
2022-08-12T15:02:28.046Z,100430.33
2022-08-12T15:04:59.692Z,100429.10
2022-08-12T15:07:34.469Z,100426.02
2022-08-12T15:10:32.029Z,100429.58
2022-08-12T15:13:07.213Z,100423.86
2022-08-12T15:15:38.031Z,100425.65
2022-08-12T15:18:14.768Z,100421.91
2022-08-12T15:20:43.576Z,100419.54
2022-08-12T15:23:17.998Z,100417.23
2022-08-12T15:26:00.096Z,100414.94
2022-08-12T15:28:34.687Z,100409.14
2022-08-12T15:31:21.364Z,100409.46
2022-08-12T15:33:57.933Z,100412.77
2022-08-12T15:36:54.438Z,100408.41
2022-08-12T15:39:17.269Z,100407.02
2022-08-12T15:41:49.421Z,100408.90
2022-08-12T15:44:37.856Z,100408.32
2022-08-12T15:47:08.856Z,100409.48
2022-08-12T15:49:55.032Z,100402.24
2022-08-12T15:52:28.589Z,100400.05
2022-08-12T15:54:59.374Z,100399.27
2022-08-12T15:57:35.407Z,100400.13
2022-08-12T16:00:09.264Z,100397.30
2022-08-12T16:02:52.333Z,100394.95
2022-08-12T16:06:15.536Z,100393.57
2022-08-12T16:08:19.743Z,100391.76
2022-08-12T16:10:56.793Z,100395.70
2022-08-12T16:13:34.469Z,100396.17
2022-08-12T16:16:22.579Z,100391.21
2022-08-12T16:18:56.644Z,100393.27
2022-08-12T16:21:52.971Z,100394.48
2022-08-12T16:24:14.568Z,100395.02
2022-08-12T16:26:45.179Z,100394.66
2022-08-12T16:29:24.947Z,100395.42
2022-08-12T16:31:55.617Z,100399.05
2022-08-12T16:34:26.116Z,100396.80
2022-08-12T16:37:13.464Z,100406.52
2022-08-12T16:40:00.883Z,100406.14
2022-08-12T16:42:31.303Z,100404.08
2022-08-12T16:45:03.076Z,100406.84
2022-08-12T16:47:58.823Z,100404.94
2022-08-12T16:50:22.236Z,100412.49
2022-08-12T16:53:02.275Z,100415.41
2022-08-12T16:55:41.918Z,100410.15
2022-08-12T16:58:28.524Z,100412.27
2022-08-12T17:01:01.981Z,100414.56
2022-08-12T17:03:37.592Z,100424.52
2022-08-12T17:06:09.951Z,100426.64
2022-08-12T17:08:40.007Z,100431.23
2022-08-12T17:11:18.324Z,100434.96
2022-08-12T17:13:53.533Z,100436.02
2022-08-12T17:16:24.008Z,100435.46
2022-08-12T17:18:57.538Z,100436.31
2022-08-12T17:21:40.703Z,100440.58
2022-08-12T17:24:22.483Z,100444.73
2022-08-12T17:27:00.763Z,100449.04
2022-08-12T17:30:00.901Z,100449.88
2022-08-12T17:32:25.676Z,100454.18
2022-08-12T17:35:15.559Z,100454.88
2022-08-12T17:37:47.955Z,100455.28
2022-08-12T17:40:36.359Z,100457.73
2022-08-12T17:43:57.873Z,100459.14
2022-08-12T17:46:00.126Z,100467.21
2022-08-12T17:48:34.942Z,100470.52
2022-08-12T17:51:12.310Z,100470.46
2022-08-12T17:54:05.712Z,100471.33
2022-08-12T17:56:36.844Z,100471.73
2022-08-12T17:59:08.988Z,100477.91
2022-08-12T18:01:39.439Z,100476.33
2022-08-12T18:04:22.763Z,100480.41
2022-08-12T18:06:57.687Z,100482.87
2022-08-12T18:09:32.226Z,100482.93
2022-08-12T18:12:26.661Z,100483.88
2022-08-12T18:14:59.866Z,100486.65
2022-08-12T18:17:29.988Z,100486.39
2022-08-12T18:20:06.589Z,100488.84
2022-08-12T18:22:38.716Z,100487.34
2022-08-12T18:26:15.514Z,100488.55
2022-08-12T18:28:16.582Z,100492.30
2022-08-12T18:30:52.285Z,100495.70
2022-08-12T18:33:24.367Z,100499.13
2022-08-12T18:35:55.333Z,100505.03
2022-08-12T18:38:27.159Z,100510.18
2022-08-12T18:41:21.042Z,100508.28
2022-08-12T18:43:58.588Z,100507.63
2022-08-12T18:46:45.240Z,100506.89
2022-08-12T18:49:19.391Z,100508.06
2022-08-12T18:51:55.024Z,100519.00
2022-08-12T18:54:26.672Z,100522.66
2022-08-12T18:57:00.409Z,100526.25
2022-08-12T19:00:01.851Z,100533.01
2022-08-12T19:02:21.769Z,100533.73
2022-08-12T19:04:53.129Z,100533.50
2022-08-12T19:07:24.498Z,100535.95
2022-08-12T19:09:59.146Z,100541.77
2022-08-12T19:12:55.336Z,100540.70
2022-08-12T19:15:24.950Z,100536.07
2022-08-12T19:17:56.809Z,100539.01
2022-08-12T19:20:31.027Z,100533.91
2022-08-12T19:23:07.486Z,100533.27
2022-08-12T19:26:00.605Z,100528.14
2022-08-12T19:28:35.698Z,100531.65
2022-08-12T19:31:55.960Z,100526.35
2022-08-12T19:34:56.317Z,100531.52
2022-08-12T19:37:20.466Z,100529.48
2022-08-12T19:40:07.820Z,100528.97
2022-08-12T19:42:44.874Z,100528.23
2022-08-12T19:45:17.395Z,100532.70
2022-08-12T19:47:46.163Z,100530.73
2022-08-12T19:50:19.686Z,100529.16
2022-08-12T19:52:53.382Z,100530.55
2022-08-12T19:55:26.164Z,100529.80
2022-08-12T19:58:02.226Z,100528.53
2022-08-12T20:00:42.985Z,100526.09
2022-08-12T20:03:39.459Z,100523.45
2022-08-12T20:06:06.375Z,100521.29
2022-08-12T20:08:37.695Z,100519.46
2022-08-12T20:12:14.575Z,100516.86
2022-08-12T20:14:01.291Z,100510.38
2022-08-12T20:16:52.685Z,100508.15
2022-08-12T20:19:52.315Z,100507.15
2022-08-12T20:22:24.584Z,100506.27
2022-08-12T20:25:01.481Z,100510.08
2022-08-12T20:28:04.884Z,100510.65
2022-08-12T20:30:38.162Z,100512.03
2022-08-12T20:33:17.774Z,100511.67
2022-08-12T20:36:06.741Z,100512.39
2022-08-12T20:38:40.176Z,100512.14
2022-08-12T20:41:17.849Z,100510.53
2022-08-12T20:43:49.851Z,100511.40
2022-08-12T20:46:20.086Z,100508.70
2022-08-12T20:48:55.111Z,100508.80
2022-08-12T20:51:50.962Z,100506.95
2022-08-12T20:54:18.984Z,100505.70
2022-08-12T20:56:49.306Z,100500.78
2022-08-12T20:59:20.049Z,100502.93
2022-08-12T21:01:53.906Z,100500.69
2022-08-12T21:04:43.823Z,100499.67
2022-08-12T21:07:13.543Z,100500.16
2022-08-12T21:09:46.939Z,100498.24
2022-08-12T21:12:31.574Z,100498.21
2022-08-12T21:15:22.811Z,100502.00
2022-08-12T21:18:11.741Z,100502.84
2022-08-12T21:20:54.505Z,100506.91
2022-08-12T21:23:23.888Z,100503.98
2022-08-12T21:25:55.548Z,100496.17
2022-08-12T21:28:27.563Z,100495.61
2022-08-12T21:32:37.728Z,100495.71
2022-08-12T21:34:07.260Z,100494.64
2022-08-12T21:36:40.413Z,100490.00
2022-08-12T21:39:21.400Z,100490.23
2022-08-12T21:41:53.299Z,100488.64
2022-08-12T21:45:44.559Z,100486.99
2022-08-12T21:47:21.179Z,100486.43
2022-08-12T21:50:02.520Z,100483.43
2022-08-12T21:52:34.926Z,100481.27
2022-08-12T21:55:18.861Z,100480.67
2022-08-12T21:57:54.328Z,100474.73
2022-08-12T22:00:32.284Z,100469.69
2022-08-12T22:04:01.646Z,100470.74
2022-08-12T22:06:20.015Z,100472.73
2022-08-12T22:08:57.800Z,100474.50
2022-08-12T22:11:41.904Z,100473.54
2022-08-12T22:14:21.426Z,100473.05
2022-08-12T22:16:53.435Z,100471.55
2022-08-12T22:19:22.858Z,100469.89
2022-08-12T22:21:54.955Z,100468.35
2022-08-12T22:24:26.257Z,100472.10
2022-08-12T22:27:18.083Z,100469.73
2022-08-12T22:30:07.640Z,100472.23
2022-08-12T22:32:47.420Z,100471.09
2022-08-12T22:35:47.258Z,100472.55
2022-08-12T22:38:23.003Z,100467.45
2022-08-12T22:40:53.843Z,100465.77
2022-08-12T22:43:59.079Z,100465.87
2022-08-12T22:46:52.560Z,100467.67
2022-08-12T22:49:36.597Z,100466.17
2022-08-12T22:52:13.550Z,100458.47
2022-08-12T22:54:46.323Z,100460.45
2022-08-12T22:57:49.376Z,100451.77
2022-08-12T23:00:27.213Z,100457.98
2022-08-12T23:03:02.997Z,100457.38
2022-08-12T23:05:57.388Z,100459.86
2022-08-12T23:08:30.034Z,100459.16
2022-08-12T23:11:00.624Z,100461.41
2022-08-12T23:13:55.515Z,100463.50
2022-08-12T23:16:31.461Z,100463.38
2022-08-12T23:19:10.602Z,100461.83
2022-08-12T23:22:06.044Z,100463.07
2022-08-12T23:24:53.817Z,100459.41
2022-08-12T23:27:51.861Z,100460.38
2022-08-12T23:30:31.924Z,100460.48
2022-08-12T23:33:13.232Z,100455.55
2022-08-12T23:35:58.846Z,100454.59
2022-08-12T23:38:33.931Z,100454.09
2022-08-12T23:41:04.939Z,100457.23
2022-08-12T23:43:38.861Z,100455.70
2022-08-12T23:46:19.107Z,100455.14
2022-08-12T23:48:50.378Z,100458.33
2022-08-12T23:51:24.308Z,100455.84
2022-08-12T23:54:01.480Z,100457.02
2022-08-12T23:56:32.314Z,100451.58
2022-08-12T23:59:01.302Z,100448.29
